LIRG

Guidonia Airport

Guidonia, Italy
TAF LIRG 181400Z 1815/1824 VRB05KT CAVOK
Issued Valid From Valid To
Dec-18 @ 14:00 UTC
(9 hours ago)
Dec-18 @ 15:00 UTC
(8 hours ago)
Dec-19 @ 00:00 UTC
(in 42 minutes)
Dec-18 @ 15:00 to Dec-19 @ 00:00
TAF LIRG 181400Z 1815/1824 VRB05KT CAVOK
Wind Visibility Clouds Conditions
Variable at 5 knots 10,000+ meters
  • No significant clouds
TAF LIRG 181400Z 1815/1824 VRB05KT CAVOK
Issued Dec-18 @ 14:00 UTC
(9 hours ago)
Valid From Dec-18 @ 15:00 UTC
(8 hours ago)
Valid To Dec-19 @ 00:00 UTC
(in 42 minutes)
Dec-18 @ 15:00 - Dec-19 @ 00:00
Wind Visibility
Variable at 5 knots 10,000+ meters
Clouds
  • No significant clouds
Conditions